Time;durP1;ratioP1;P1;durP2;ratioP2;P2;SDS_P1;SDS_P2;PMS_P1;PMS_P2;Temp;Humidity;BMP_temperature;BMP_pressure;BME280_temperature;BME280_humidity;BME280_pressure;Samples;Min_cycle;Max_cycle;Signal;HPM_P1;HPM_P2
2021/12/17 00:05:12;;;;;;;23.20;12.63;;;4.90;99.90;;;;;;5053619;28;20274;-64
2021/12/17 00:07:38;;;;;;;28.30;14.20;;;4.90;99.90;;;;;;5054158;28;20013;-64
2021/12/17 00:10:10;;;;;;;21.80;12.93;;;4.90;99.90;;;;;;5053888;28;20021;-63
2021/12/17 00:12:36;;;;;;;26.00;14.27;;;4.80;99.90;;;;;;5035825;28;20123;-64
2021/12/17 00:15:02;;;;;;;25.83;13.53;;;4.80;99.90;;;;;;5053547;28;20059;-64
2021/12/17 00:17:33;;;;;;;32.13;14.48;;;4.90;99.90;;;;;;5054905;28;20438;-65
2021/12/17 00:50:15;;;;;;;25.77;13.80;;;5.20;99.90;;;;;;5053348;28;20469;-65
2021/12/17 00:52:40;;;;;;;24.10;13.90;;;5.20;99.90;;;;;;5035329;28;20025;-65
2021/12/17 00:55:08;;;;;;;23.27;14.00;;;5.20;99.90;;;;;;5053070;28;20059;-65
2021/12/17 00:57:42;;;;;;;26.42;13.10;;;5.20;99.90;;;;;;5035311;28;20032;-65
2021/12/17 01:00:16;;;;;;;27.52;14.05;;;5.30;99.90;;;;;;5052988;28;20025;-64
2021/12/17 01:02:42;;;;;;;25.70;12.23;;;5.30;99.90;;;;;;5062839;28;20056;-65
2021/12/17 01:05:10;;;;;;;;;;;5.40;99.90;;;;;;5063719;28;20048;-64
2021/12/17 01:07:39;;;;;;;23.30;12.20;;;5.40;99.90;;;;;;5056177;28;19905;-64
2021/12/17 01:10:09;;;;;;;21.17;11.52;;;5.50;99.90;;;;;;5038240;28;20505;-64
2021/12/17 01:12:34;;;;;;;23.60;12.75;;;5.50;99.90;;;;;;5056866;28;20036;-64
2021/12/17 01:15:01;;;;;;;22.63;12.40;;;5.60;99.90;;;;;;5056914;28;20151;-64
2021/12/17 01:17:29;;;;;;;22.50;11.55;;;5.60;99.90;;;;;;5057940;28;20516;-65
2021/12/17 01:25:01;;;;;;;19.05;11.43;;;5.70;99.90;;;;;;5056484;28;20028;-64
2021/12/17 01:35:43;;;;;;;24.25;13.02;;;5.70;99.90;;;;;;5056569;28;20032;-65
2021/12/17 01:43:44;;;;;;;22.30;11.23;;;5.70;99.90;;;;;;5056377;28;20027;-64
2021/12/17 01:46:21;;;;;;;23.92;12.07;;;5.70;99.90;;;;;;5056254;28;20055;-65
2021/12/17 01:49:17;;;;;;;21.90;12.48;;;5.70;99.90;;;;;;5056306;28;20084;-65
2021/12/17 01:59:55;;;;;;;23.15;11.55;;;5.60;99.90;;;;;;5057269;28;20496;-65
2021/12/17 02:02:21;;;;;;;24.13;12.48;;;5.60;99.90;;;;;;5056765;28;20055;-64
2021/12/17 02:04:46;;;;;;;20.40;11.45;;;5.50;99.90;;;;;;5055875;28;20053;-65
2021/12/17 02:07:12;;;;;;;20.57;12.50;;;5.50;99.90;;;;;;5055828;28;20029;-64
2021/12/17 02:31:48;;;;;;;21.85;12.48;;;5.50;99.90;;;;;;5056705;28;20462;-65
2021/12/17 02:36:55;;;;;;;20.15;11.73;;;5.50;99.90;;;;;;5056070;28;20504;-64
2021/12/17 02:47:34;;;;;;;24.88;12.73;;;5.50;99.90;;;;;;5055310;28;20024;-65
2021/12/17 02:50:00;;;;;;;24.33;12.40;;;5.50;99.90;;;;;;5055096;28;20104;-65
2021/12/17 02:52:29;;;;;;;25.73;12.70;;;5.50;99.90;;;;;;5055234;28;20083;-65
2021/12/17 02:54:57;;;;;;;25.65;13.57;;;5.50;99.90;;;;;;5055290;28;20099;-64
2021/12/17 02:57:24;;;;;;;23.48;12.45;;;5.50;99.90;;;;;;5037213;28;20489;-64
2021/12/17 02:59:51;;;;;;;22.05;13.13;;;5.60;99.90;;;;;;5055206;28;20503;-64
2021/12/17 03:02:17;;;;;;;;;;;5.50;99.90;;;;;;5056159;28;20053;-65
2021/12/17 03:04:43;;;;;;;20.98;11.95;;;5.60;99.90;;;;;;5055155;28;19940;-64
2021/12/17 03:07:14;;;;;;;23.50;12.17;;;5.60;99.90;;;;;;5055434;28;20456;-64
2021/12/17 03:12:35;;;;;;;24.27;12.48;;;5.70;99.90;;;;;;5054359;28;20032;-65
2021/12/17 03:26:03;;;;;;;23.70;12.52;;;5.70;99.90;;;;;;5054480;28;20473;-62
2021/12/17 03:28:29;;;;;;;22.58;12.40;;;5.80;99.90;;;;;;5054358;28;20032;-64
2021/12/17 03:30:55;;;;;;;24.27;12.77;;;5.70;99.90;;;;;;5053810;28;20017;-64
2021/12/17 03:33:21;;;;;;;24.30;12.63;;;5.70;99.90;;;;;;5053574;28;20155;-64
2021/12/17 03:35:48;;;;;;;25.17;13.20;;;5.80;99.90;;;;;;5054023;28;20071;-63
2021/12/17 03:38:14;;;;;;;24.83;14.25;;;5.80;99.90;;;;;;5068270;22;20041;-66
2021/12/17 03:40:42;;;;;;;24.02;13.70;;;5.80;99.90;;;;;;5054022;28;20076;-66
2021/12/17 03:43:12;;;;;;;22.00;12.45;;;5.80;99.90;;;;;;5054380;28;20376;-67
2021/12/17 03:45:40;;;;;;;23.90;13.15;;;5.80;99.90;;;;;;5052465;28;20089;-67
2021/12/17 03:48:05;;;;;;;23.35;12.88;;;5.70;99.90;;;;;;5053613;28;20107;-67
2021/12/17 03:50:36;;;;;;;21.17;12.63;;;5.70;99.90;;;;;;5035680;28;20029;-66
2021/12/17 03:53:03;;;;;;;25.92;12.88;;;5.70;99.90;;;;;;5053570;28;20028;-67
2021/12/17 03:55:28;;;;;;;24.65;13.43;;;5.70;99.90;;;;;;5035595;28;20028;-67
2021/12/17 03:57:55;;;;;;;23.03;12.73;;;5.70;99.90;;;;;;5035641;28;20075;-66
2021/12/17 04:00:21;;;;;;;25.10;13.30;;;5.70;99.90;;;;;;5035964;28;20025;-67
2021/12/17 04:02:46;;;;;;;24.03;13.13;;;5.70;99.90;;;;;;5035416;28;20392;-68
2021/12/17 04:05:12;;;;;;;26.52;14.15;;;5.80;99.90;;;;;;5035374;28;20482;-67
2021/12/17 04:07:38;;;;;;;20.35;12.95;;;5.80;99.90;;;;;;5053486;28;20392;-67
2021/12/17 04:10:04;;;;;;;27.43;13.53;;;5.70;99.90;;;;;;5053668;28;20023;-67
2021/12/17 04:15:08;;;;;;;24.27;12.82;;;5.80;99.90;;;;;;5053900;28;20056;-67
2021/12/17 04:17:42;;;;;;;23.98;12.65;;;5.80;99.90;;;;;;5053645;28;20377;-67
2021/12/17 04:20:08;;;;;;;22.40;13.02;;;5.80;99.90;;;;;;5053073;28;20482;-66
2021/12/17 04:22:33;;;;;;;22.92;13.65;;;5.70;99.90;;;;;;5053000;28;20033;-66
2021/12/17 04:24:59;;;;;;;25.30;13.53;;;5.70;99.90;;;;;;5053223;28;20104;-67
2021/12/17 04:27:25;;;;;;;26.97;14.33;;;5.70;99.90;;;;;;5053058;28;20029;-66
2021/12/17 04:29:51;;;;;;;26.13;13.43;;;5.70;99.90;;;;;;5052782;28;20485;-67
2021/12/17 04:32:18;;;;;;;23.17;14.07;;;5.80;99.90;;;;;;5034929;28;20032;-66
2021/12/17 04:34:43;;;;;;;21.70;13.02;;;5.80;99.90;;;;;;5053464;28;20025;-67
2021/12/17 04:37:09;;;;;;;25.73;12.13;;;5.80;99.90;;;;;;5053450;28;20499;-66
2021/12/17 04:39:35;;;;;;;25.60;13.20;;;5.80;99.90;;;;;;5053185;28;20283;-66
2021/12/17 04:42:07;;;;;;;26.45;13.57;;;5.80;99.90;;;;;;5034978;28;20021;-66
2021/12/17 04:44:36;;;;;;;25.45;13.13;;;5.80;99.90;;;;;;5035086;28;20032;-66
2021/12/17 04:57:56;;;;;;;25.77;13.40;;;5.90;99.90;;;;;;5052995;28;20032;-66
2021/12/17 05:00:26;;;;;;;23.33;14.15;;;6.00;99.90;;;;;;5052639;28;20116;-66
2021/12/17 05:02:55;;;;;;;23.45;13.35;;;6.00;99.90;;;;;;5052508;28;20025;-66
2021/12/17 05:05:29;;;;;;;24.60;11.95;;;6.00;99.90;;;;;;5034668;28;20466;-67
2021/12/17 05:08:01;;;;;;;23.83;13.10;;;6.00;99.90;;;;;;5052667;28;20033;-66
2021/12/17 05:18:57;;;;;;;19.40;10.90;;;6.20;99.90;;;;;;5052907;28;20040;-70
2021/12/17 05:21:24;;;;;;;21.00;11.02;;;6.30;99.90;;;;;;5052802;28;20103;-70
2021/12/17 05:23:52;;;;;;;21.13;11.23;;;6.30;99.90;;;;;;5034974;28;20485;-71
2021/12/17 05:26:20;;;;;;;18.58;11.23;;;6.30;99.90;;;;;;5034933;28;20074;-69
2021/12/17 05:28:47;;;;;;;15.07;8.88;;;6.30;99.90;;;;;;5052449;28;20131;-70
2021/12/17 05:31:15;;;;;;;17.05;10.05;;;6.30;99.90;;;;;;5052467;28;20467;-70
2021/12/17 05:33:40;;;;;;;18.08;10.82;;;6.40;99.90;;;;;;5034557;28;20025;-69
2021/12/17 05:36:06;;;;;;;16.30;10.27;;;6.40;99.90;;;;;;5052339;28;20429;-70
2021/12/17 05:38:32;;;;;;;17.38;10.30;;;6.40;99.90;;;;;;5052513;28;20098;-69
2021/12/17 05:40:58;;;;;;;15.87;10.67;;;6.40;99.90;;;;;;5052436;28;20153;-69
2021/12/17 05:43:23;;;;;;;18.43;10.53;;;6.40;99.90;;;;;;5052380;28;20039;-69
2021/12/17 05:46:03;;;;;;;19.17;10.77;;;6.40;99.90;;;;;;5052354;28;20021;-69
2021/12/17 05:48:29;;;;;;;19.30;10.77;;;6.40;99.90;;;;;;5052564;28;20025;-69
2021/12/17 05:50:57;;;;;;;20.27;11.30;;;6.40;99.90;;;;;;5052680;28;20043;-69
2021/12/17 05:53:24;;;;;;;19.73;11.15;;;6.40;99.90;;;;;;5035004;28;20028;-69
2021/12/17 05:55:50;;;;;;;;;;;6.40;99.90;;;;;;5056195;28;20029;-68
2021/12/17 05:58:16;;;;;;;20.65;11.38;;;6.40;99.90;;;;;;5057603;28;19904;-69
2021/12/17 06:00:43;;;;;;;19.77;11.07;;;6.30;99.90;;;;;;5039223;28;20075;-67
2021/12/17 06:03:08;;;;;;;20.10;11.30;;;6.40;99.90;;;;;;5057507;28;20155;-68
2021/12/17 06:05:34;;;;;;;21.63;10.38;;;6.30;99.90;;;;;;5039982;28;20075;-70
2021/12/17 06:08:00;;;;;;;16.80;11.73;;;6.30;99.90;;;;;;5039700;28;20050;-69
2021/12/17 06:10:27;;;;;;;17.17;10.87;;;6.30;99.90;;;;;;5058048;28;20025;-69
2021/12/17 06:12:53;;;;;;;18.35;10.82;;;6.30;99.90;;;;;;5056276;28;20040;-69
2021/12/17 06:15:20;;;;;;;20.30;11.53;;;6.30;99.90;;;;;;5056214;28;20029;-69
2021/12/17 06:17:46;;;;;;;18.20;10.40;;;6.30;99.90;;;;;;5037674;28;20025;-69
2021/12/17 06:20:14;;;;;;;17.65;10.52;;;6.30;99.90;;;;;;5055741;28;20078;-69
2021/12/17 06:22:40;;;;;;;16.08;9.68;;;6.30;99.90;;;;;;5037607;28;20083;-69
2021/12/17 06:25:08;;;;;;;19.33;10.53;;;6.30;99.90;;;;;;5037607;28;20116;-66
2021/12/17 06:27:35;;;;;;;20.60;11.40;;;6.40;99.90;;;;;;5055344;28;20056;-67
2021/12/17 06:30:02;;;;;;;18.20;10.20;;;6.30;99.90;;;;;;5055753;28;20354;-67
2021/12/17 06:32:28;;;;;;;18.45;10.35;;;6.30;99.90;;;;;;5055356;28;20032;-67
2021/12/17 06:34:53;;;;;;;19.17;9.80;;;6.30;99.90;;;;;;5055965;28;20033;-66
2021/12/17 06:37:20;;;;;;;20.08;10.80;;;6.30;99.90;;;;;;5055307;28;20068;-67
2021/12/17 06:39:46;;;;;;;;;;;6.30;99.90;;;;;;5055163;28;20057;-66
2021/12/17 06:42:13;;;;;;;17.80;10.27;;;6.30;99.90;;;;;;5055153;28;19904;-66
2021/12/17 06:44:39;;;;;;;16.42;10.18;;;6.30;99.90;;;;;;5055545;28;20478;-66
2021/12/17 06:47:11;;;;;;;;;;;6.30;99.90;;;;;;5038137;28;20060;-66
2021/12/17 07:10:40;;;;;;;13.48;8.13;;;6.40;99.90;;;;;;5054341;28;20070;-69
2021/12/17 07:34:51;;;;;;;12.43;7.47;;;6.60;99.90;;;;;;5054660;28;20040;-69
2021/12/17 07:39:43;;;;;;;11.07;7.57;;;6.60;99.90;;;;;;5056786;28;20033;-71
2021/12/17 07:42:08;;;;;;;;;;;6.60;99.90;;;;;;5054977;28;20029;-73
2021/12/17 07:44:34;;;;;;;11.05;6.70;;;6.60;99.90;;;;;;5036106;28;19905;-71
2021/12/17 07:47:00;;;;;;;9.23;6.13;;;6.70;99.90;;;;;;5053935;28;20028;-71
2021/12/17 07:49:26;;;;;;;10.37;6.77;;;6.70;99.90;;;;;;5035810;28;20021;-70
2021/12/17 07:51:51;;;;;;;12.63;7.17;;;6.70;99.90;;;;;;5053958;28;20052;-69
2021/12/17 07:54:17;;;;;;;10.87;6.63;;;6.70;99.90;;;;;;5053662;28;20264;-70
2021/12/17 07:56:43;;;;;;;13.45;7.65;;;6.70;99.90;;;;;;5053482;28;20528;-69
2021/12/17 07:59:11;;;;;;;11.23;7.20;;;6.70;99.90;;;;;;5035434;28;20045;-69
2021/12/17 08:01:37;;;;;;;11.15;6.93;;;6.80;99.90;;;;;;5053765;28;20024;-69
2021/12/17 08:04:08;;;;;;;10.80;7.15;;;6.80;99.90;;;;;;5035838;28;20021;-69
2021/12/17 08:06:35;;;;;;;11.68;7.53;;;6.80;99.90;;;;;;5053466;28;20056;-70
2021/12/17 08:09:01;;;;;;;12.40;7.13;;;6.80;99.90;;;;;;5035561;28;20025;-69
2021/12/17 08:11:27;;;;;;;11.82;7.35;;;6.90;99.90;;;;;;5053858;28;20043;-69
2021/12/17 08:13:55;;;;;;;10.52;6.85;;;6.90;99.90;;;;;;5035858;28;20028;-68
2021/12/17 08:24:39;;;;;;;12.70;7.78;;;6.90;99.90;;;;;;5053851;28;20036;-68
2021/12/17 08:27:09;;;;;;;12.85;7.00;;;7.00;99.90;;;;;;5052928;28;20103;-69
2021/12/17 08:32:02;;;;;;;;;;;7.00;99.90;;;;;;5053578;28;20025;-69
2021/12/17 08:34:28;;;;;;;11.07;7.00;;;7.00;99.90;;;;;;5035388;28;20363;-70
2021/12/17 08:36:54;;;;;;;10.53;6.70;;;7.00;99.90;;;;;;5053479;28;20025;-70
2021/12/17 08:39:21;;;;;;;12.63;6.57;;;6.90;99.90;;;;;;5052654;28;20029;-70
2021/12/17 08:41:51;;;;;;;10.25;6.85;;;6.90;99.90;;;;;;5053159;28;20029;-72
2021/12/17 08:44:17;;;;;;;12.30;7.15;;;6.90;99.90;;;;;;5053011;28;20021;-72
2021/12/17 08:46:42;;;;;;;11.93;6.43;;;6.90;99.90;;;;;;5035572;28;20021;-72
2021/12/17 08:49:09;;;;;;;10.93;6.40;;;6.90;99.90;;;;;;5053280;28;20255;-72
2021/12/17 08:51:36;;;;;;;10.23;6.57;;;6.90;99.90;;;;;;5053306;28;20017;-69
2021/12/17 08:54:03;;;;;;;10.20;6.22;;;7.00;99.90;;;;;;5053227;28;20021;-69
2021/12/17 08:56:32;;;;;;;;;;;7.00;99.90;;;;;;5053373;28;20393;-68
2021/12/17 08:59:02;;;;;;;12.35;6.57;;;7.00;99.90;;;;;;5035274;28;19908;-68
2021/12/17 09:01:28;;;;;;;10.70;5.90;;;7.00;99.90;;;;;;5052902;28;20109;-69
2021/12/17 09:03:54;;;;;;;13.30;6.82;;;7.00;99.90;;;;;;5034684;28;20060;-73
2021/12/17 09:06:24;;;;;;;10.80;6.65;;;7.00;99.90;;;;;;5052673;28;20040;-69
2021/12/17 09:08:54;;;;;;;10.57;6.32;;;7.10;99.90;;;;;;5052858;28;20025;-70
2021/12/17 09:11:23;;;;;;;15.50;6.30;;;7.10;99.90;;;;;;5034650;28;20017;-69
2021/12/17 09:13:50;;;;;;;11.07;6.82;;;7.10;99.90;;;;;;5052527;28;20025;-69
2021/12/17 09:16:16;;;;;;;8.93;6.53;;;7.20;99.90;;;;;;5034534;28;20021;-69
2021/12/17 09:18:44;;;;;;;11.35;6.25;;;7.20;99.90;;;;;;5034345;28;20025;-70
2021/12/17 09:21:10;;;;;;;9.82;6.30;;;7.20;99.90;;;;;;5052304;28;20039;-69
2021/12/17 09:23:36;;;;;;;10.90;6.43;;;7.30;99.90;;;;;;5052968;28;20104;-69
2021/12/17 09:26:01;;;;;;;10.27;6.10;;;7.30;99.90;;;;;;5052657;28;20103;-71
2021/12/17 09:28:29;;;;;;;9.50;5.63;;;7.30;99.90;;;;;;5052559;28;20478;-69
2021/12/17 09:30:54;;;;;;;10.93;6.10;;;7.40;99.90;;;;;;5037388;28;20505;-69
2021/12/17 09:33:20;;;;;;;10.50;6.70;;;7.40;99.90;;;;;;5056834;28;20029;-70
2021/12/17 09:35:46;;;;;;;13.73;6.10;;;7.40;99.90;;;;;;5038449;28;20082;-69
2021/12/17 09:38:11;;;;;;;10.02;6.25;;;7.50;99.90;;;;;;5056915;28;20040;-66
2021/12/17 09:40:38;;;;;;;8.73;5.53;;;7.50;99.90;;;;;;5038330;28;20047;-67
2021/12/17 09:43:03;;;;;;;9.07;5.95;;;7.50;99.90;;;;;;5038376;28;20120;-68
2021/12/17 09:45:29;;;;;;;9.18;5.40;;;7.60;99.90;;;;;;5038060;28;20052;-66
2021/12/17 09:47:56;;;;;;;10.13;6.20;;;7.60;99.90;;;;;;5056225;28;20436;-67
2021/12/17 09:50:22;;;;;;;8.70;5.82;;;7.60;99.90;;;;;;5055963;28;20048;-66
2021/12/17 09:52:48;;;;;;;8.88;5.80;;;7.70;99.90;;;;;;5056027;28;20078;-68
2021/12/17 09:55:14;;;;;;;12.02;6.60;;;7.80;99.90;;;;;;5056212;28;20044;-67
2021/12/17 09:57:40;;;;;;;8.35;5.78;;;7.90;99.90;;;;;;5055817;28;20029;-67
2021/12/17 10:00:12;;;;;;;8.53;6.17;;;8.10;99.90;;;;;;5037959;28;20036;-66
2021/12/17 10:02:38;;;;;;;9.80;6.32;;;8.20;99.90;;;;;;5056063;28;20036;-66
2021/12/17 10:05:05;;;;;;;8.65;5.43;;;8.20;99.90;;;;;;5055568;28;20148;-65
2021/12/17 10:07:33;;;;;;;9.13;5.55;;;8.30;99.90;;;;;;5056115;28;20349;-67
2021/12/17 10:10:02;;;;;;;9.02;5.85;;;8.40;99.90;;;;;;5038149;28;20028;-67
2021/12/17 10:12:33;;;;;;;11.13;5.70;;;8.40;99.90;;;;;;5056215;28;20482;-67
2021/12/17 10:15:08;;;;;;;10.23;5.80;;;8.50;99.90;;;;;;5039441;28;20133;-67
2021/12/17 10:17:36;;;;;;;7.72;5.15;;;8.60;99.90;;;;;;5056060;28;20029;-67
2021/12/17 10:20:05;;;;;;;8.07;5.22;;;8.60;99.90;;;;;;5055431;28;20436;-67
2021/12/17 10:22:31;;;;;;;8.45;5.63;;;8.70;99.90;;;;;;5055233;28;20087;-65
2021/12/17 10:25:02;;;;;;;;;;;8.80;99.90;;;;;;5055665;28;20024;-66
2021/12/17 10:27:32;;;;;;;8.45;6.00;;;8.70;99.90;;;;;;5037270;28;20460;-66
2021/12/17 10:30:07;;;;;;;9.75;6.22;;;8.70;99.90;;;;;;5055182;28;20043;-66
2021/12/17 10:32:33;;;;;;;9.13;5.68;;;8.70;99.90;;;;;;5055277;28;20433;-66
2021/12/17 10:35:16;;;;;;;8.73;5.47;;;8.80;99.90;;;;;;5037524;28;20028;-66
2021/12/17 10:37:45;;;;;;;8.18;5.38;;;8.90;99.90;;;;;;5055348;28;20025;-66
2021/12/17 10:40:22;;;;;;;7.75;5.03;;;8.90;99.90;;;;;;5036968;28;20445;-66
2021/12/17 10:42:56;;;;;;;9.47;5.47;;;9.00;99.90;;;;;;5054287;28;20048;-66
2021/12/17 10:45:29;;;;;;;9.00;5.50;;;9.10;99.90;;;;;;5054983;28;20266;-67
2021/12/17 10:48:02;;;;;;;10.48;6.05;;;9.10;99.90;;;;;;5054894;28;20024;-66
2021/12/17 10:50:28;;;;;;;9.02;5.50;;;9.10;99.90;;;;;;5055311;28;20021;-68
2021/12/17 10:52:57;;;;;;;7.60;5.85;;;9.20;99.90;;;;;;5055474;28;20021;-66
2021/12/17 10:55:25;;;;;;;11.23;6.65;;;9.20;99.90;;;;;;5036898;28;20124;-65
2021/12/17 10:57:59;;;;;;;10.43;6.13;;;9.30;99.90;;;;;;5055248;28;20062;-65
2021/12/17 11:00:24;;;;;;;9.98;6.30;;;9.40;99.90;;;;;;5055165;28;20500;-66
2021/12/17 11:02:53;;;;;;;9.90;6.13;;;9.40;99.90;;;;;;5055153;28;20073;-65
2021/12/17 11:05:19;;;;;;;8.15;5.53;;;9.30;99.90;;;;;;5055310;28;20081;-65
2021/12/17 11:07:49;;;;;;;9.10;5.88;;;9.20;99.90;;;;;;5054968;28;20377;-66
2021/12/17 11:10:16;;;;;;;8.88;5.80;;;9.00;99.90;;;;;;5037803;28;20039;-66
2021/12/17 11:12:45;;;;;;;8.75;5.68;;;8.90;99.90;;;;;;5055647;28;20120;-65
2021/12/17 11:15:19;;;;;;;11.70;6.38;;;8.80;99.90;;;;;;5054902;28;20478;-65
2021/12/17 11:17:52;;;;;;;8.55;5.90;;;8.80;99.90;;;;;;5054638;28;20028;-65
2021/12/17 11:20:31;;;;;;;9.23;6.00;;;8.80;99.90;;;;;;5054713;28;20544;-67
2021/12/17 11:23:09;;;;;;;8.20;5.57;;;8.70;99.90;;;;;;5056716;28;20025;-65
2021/12/17 11:25:37;;;;;;;9.82;5.80;;;8.70;99.90;;;;;;5054263;28;20054;-66
2021/12/17 11:28:05;;;;;;;9.27;5.90;;;8.60;99.90;;;;;;5054124;28;20079;-65
2021/12/17 11:30:34;;;;;;;8.45;5.72;;;8.60;99.90;;;;;;5054194;28;20102;-65
2021/12/17 11:33:02;;;;;;;10.32;6.30;;;8.70;99.90;;;;;;5053940;28;20037;-66
2021/12/17 11:35:29;;;;;;;7.15;5.20;;;8.80;99.90;;;;;;5053962;28;20017;-66
2021/12/17 11:38:01;;;;;;;8.95;5.72;;;8.90;99.90;;;;;;5054337;28;20532;-65
2021/12/17 11:40:31;;;;;;;9.00;5.10;;;9.00;99.90;;;;;;5038279;28;20384;-65
2021/12/17 11:43:16;;;;;;;8.68;5.55;;;9.00;99.90;;;;;;5054643;28;20054;-65
2021/12/17 11:45:55;;;;;;;8.57;5.70;;;9.00;99.90;;;;;;5054040;28;20104;-65
2021/12/17 11:48:22;;;;;;;13.43;6.70;;;9.10;99.90;;;;;;5035685;28;20485;-65
2021/12/17 11:51:05;;;;;;;;;;;9.20;99.90;;;;;;5054533;28;20017;-65
2021/12/17 11:53:32;;;;;;;6.88;5.00;;;9.20;99.90;;;;;;5053458;28;19908;-65
2021/12/17 11:56:03;;;;;;;7.55;5.03;;;9.20;99.90;;;;;;5053867;28;20025;-65
2021/12/17 11:58:53;;;;;;;7.95;5.15;;;9.20;99.90;;;;;;5053463;28;20150;-64
2021/12/17 12:01:57;;;;;;;9.65;6.25;;;9.30;99.90;;;;;;5053893;28;20133;-66
2021/12/17 12:04:33;;;;;;;9.25;5.95;;;9.40;99.90;;;;;;5053487;28;20017;-65
2021/12/17 12:07:22;;;;;;;9.90;6.35;;;9.40;99.90;;;;;;5053430;28;20029;-65
2021/12/17 12:09:57;;;;;;;14.20;5.85;;;9.40;99.90;;;;;;5053301;28;20112;-65
2021/12/17 12:12:29;;;;;;;9.75;6.07;;;9.30;99.90;;;;;;5053148;28;20029;-65
2021/12/17 12:15:15;;;;;;;8.32;5.47;;;9.40;99.90;;;;;;5053546;28;20362;-65
2021/12/17 12:18:13;;;;;;;8.85;5.97;;;9.30;99.90;;;;;;5052944;28;20112;-65
2021/12/17 12:20:45;;;;;;;10.07;6.72;;;9.30;99.90;;;;;;5035094;28;20079;-65
2021/12/17 12:23:30;;;;;;;8.85;5.43;;;9.40;99.90;;;;;;5052978;28;20048;-65
2021/12/17 12:26:01;;;;;;;9.82;5.53;;;9.40;99.90;;;;;;5052964;28;20070;-66
2021/12/17 12:28:47;;;;;;;7.28;5.32;;;9.40;99.90;;;;;;5034827;28;20021;-65
2021/12/17 12:31:20;;;;;;;9.32;5.93;;;9.40;99.90;;;;;;5036104;28;20343;-66
2021/12/17 12:34:07;;;;;;;10.70;6.30;;;9.40;99.90;;;;;;5052864;28;20017;-66
2021/12/17 12:36:52;;;;;;;9.13;5.80;;;9.30;99.90;;;;;;5052869;28;20466;-64
2021/12/17 12:39:23;;;;;;;9.57;6.00;;;9.30;99.90;;;;;;5052969;28;20040;-65
2021/12/17 12:42:12;;;;;;;9.88;6.00;;;9.20;99.90;;;;;;5052622;28;20445;-66
2021/12/17 12:44:44;;;;;;;9.52;5.55;;;9.10;99.90;;;;;;5052831;28;20021;-65
2021/12/17 12:47:11;;;;;;;12.10;6.50;;;9.00;99.90;;;;;;5053235;28;20362;-64
2021/12/17 12:49:56;;;;;;;7.82;5.22;;;9.00;99.90;;;;;;5052797;28;20389;-65
2021/12/17 12:52:31;;;;;;;9.68;6.03;;;8.90;99.90;;;;;;5053065;28;20078;-64
2021/12/17 12:55:12;;;;;;;8.75;5.47;;;8.90;99.90;;;;;;5034874;28;20066;-64
2021/12/17 12:57:42;;;;;;;8.95;5.80;;;8.80;99.90;;;;;;5052842;28;20028;-65
2021/12/17 13:00:23;;;;;;;8.45;5.53;;;8.80;99.90;;;;;;5054090;28;20036;-65
2021/12/17 13:02:52;;;;;;;9.10;5.95;;;8.80;99.90;;;;;;5052738;28;20024;-65
2021/12/17 13:05:18;;;;;;;9.02;5.65;;;8.70;99.90;;;;;;5054917;28;20480;-66
2021/12/17 13:07:47;;;;;;;10.20;6.00;;;8.70;99.90;;;;;;5056839;28;20053;-66
2021/12/17 13:10:23;;;;;;;8.40;5.97;;;8.70;99.90;;;;;;5056557;28;20259;-65
2021/12/17 13:13:21;;;;;;;9.73;6.00;;;8.70;99.90;;;;;;5057101;28;20036;-65
2021/12/17 13:15:51;;;;;;;;;;;8.70;99.90;;;;;;5057238;28;20146;-65
2021/12/17 13:24:05;;;;;;;;;;;8.70;99.90;;;;;;5056979;28;20029;-66
2021/12/17 13:26:31;;;;;;;10.97;6.03;;;8.60;99.90;;;;;;5056348;28;19916;-69
2021/12/17 13:29:06;;;;;;;9.03;6.10;;;8.60;99.90;;;;;;5056346;28;20392;-66
2021/12/17 13:31:50;;;;;;;8.65;5.88;;;8.70;99.90;;;;;;5038522;28;20047;-65
2021/12/17 13:34:25;;;;;;;8.18;5.30;;;8.70;99.90;;;;;;5056190;28;20031;-66
2021/12/17 13:36:56;;;;;;;9.15;6.45;;;8.70;99.90;;;;;;5056569;28;20016;-66
2021/12/17 13:39:25;;;;;;;9.90;6.05;;;8.70;99.90;;;;;;5055880;28;20392;-65
2021/12/17 13:41:51;;;;;;;9.80;6.05;;;8.70;99.90;;;;;;5056537;28;20025;-65
2021/12/17 13:44:25;;;;;;;11.10;6.30;;;8.70;99.90;;;;;;5057233;28;20029;-65
2021/12/17 13:46:53;;;;;;;11.80;6.53;;;8.70;99.90;;;;;;5057745;28;20028;-65
2021/12/17 13:49:19;;;;;;;10.98;7.05;;;8.70;99.90;;;;;;5056197;28;20021;-66
2021/12/17 13:51:45;;;;;;;9.20;6.22;;;8.60;99.90;;;;;;5056457;28;20496;-66
2021/12/17 13:54:11;;;;;;;11.40;6.47;;;8.60;99.90;;;;;;5056749;28;20033;-64
2021/12/17 13:56:37;;;;;;;10.93;6.85;;;8.60;99.90;;;;;;5056389;28;20025;-65
2021/12/17 13:59:03;;;;;;;10.97;6.93;;;8.60;99.90;;;;;;5056170;28;20046;-65
2021/12/17 14:01:29;;;;;;;11.65;6.97;;;8.60;99.90;;;;;;5055962;28;20130;-66
2021/12/17 14:03:55;;;;;;;12.45;7.72;;;8.60;99.90;;;;;;5056470;28;20047;-65
2021/12/17 14:06:28;;;;;;;11.98;7.72;;;8.60;99.90;;;;;;5038096;28;20025;-66
2021/12/17 14:08:53;;;;;;;11.23;7.28;;;8.60;99.90;;;;;;5055659;28;20141;-66
2021/12/17 14:11:25;;;;;;;12.63;7.53;;;8.50;99.90;;;;;;5055637;28;20060;-65
2021/12/17 14:13:52;;;;;;;11.65;7.30;;;8.50;99.90;;;;;;5055265;28;20632;-66
2021/12/17 14:16:30;;;;;;;14.57;8.00;;;8.50;99.90;;;;;;5056196;28;20382;-66
2021/12/17 14:18:58;;;;;;;12.65;8.02;;;8.50;99.90;;;;;;5055556;28;20390;-66
2021/12/17 14:21:33;;;;;;;13.32;8.48;;;8.40;99.90;;;;;;5055482;28;20021;-65
2021/12/17 14:23:59;;;;;;;12.00;8.07;;;8.40;99.90;;;;;;5055647;28;20021;-65
2021/12/17 14:26:30;;;;;;;15.25;8.85;;;8.40;99.90;;;;;;5055445;28;20028;-64
2021/12/17 14:29:08;;;;;;;14.77;9.63;;;8.40;99.90;;;;;;5055239;28;20116;-65
2021/12/17 14:31:34;;;;;;;13.98;8.27;;;8.30;99.90;;;;;;5057172;28;20025;-65
2021/12/17 14:34:00;;;;;;;14.00;8.23;;;8.30;99.90;;;;;;5036973;28;20374;-65
2021/12/17 14:36:29;;;;;;;11.18;7.38;;;8.30;99.90;;;;;;5037361;28;20024;-67
2021/12/17 14:39:05;;;;;;;11.73;8.00;;;8.30;99.90;;;;;;5054863;28;20029;-67
2021/12/17 14:41:42;;;;;;;14.00;7.25;;;8.30;99.90;;;;;;5055735;28;20051;-66
2021/12/17 14:44:22;;;;;;;11.60;7.80;;;8.30;99.90;;;;;;5055278;28;20044;-68
2021/12/17 14:46:54;;;;;;;10.82;7.05;;;8.30;99.90;;;;;;5055516;28;20482;-68
2021/12/17 14:57:14;;;;;;;13.68;7.72;;;8.20;99.90;;;;;;5037294;28;20029;-68
2021/12/17 15:05:47;;;;;;;9.43;6.25;;;8.20;99.90;;;;;;5055377;28;20025;-67
2021/12/17 15:08:14;;;;;;;9.10;6.17;;;8.20;99.90;;;;;;5037003;28;20024;-70
2021/12/17 15:10:40;;;;;;;12.77;6.47;;;8.20;99.90;;;;;;5037227;28;20111;-68
2021/12/17 15:13:06;;;;;;;10.52;6.85;;;8.10;99.90;;;;;;5055219;28;20051;-70
2021/12/17 15:15:35;;;;;;;9.88;6.20;;;8.10;99.90;;;;;;5056295;28;20393;-65
2021/12/17 15:18:03;;;;;;;8.32;5.45;;;8.10;99.90;;;;;;5038149;28;20033;-65
2021/12/17 15:20:31;;;;;;;8.55;5.75;;;8.10;99.90;;;;;;5055895;28;20366;-65
2021/12/17 15:22:59;;;;;;;11.10;5.72;;;8.10;99.90;;;;;;5037980;28;20021;-65
2021/12/17 15:25:26;;;;;;;10.65;6.35;;;8.10;99.90;;;;;;5055086;28;20013;-66
2021/12/17 15:27:52;;;;;;;11.55;7.18;;;8.10;99.90;;;;;;5055116;28;20423;-66
2021/12/17 15:30:22;;;;;;;7.97;6.07;;;8.10;99.90;;;;;;5056537;28;20029;-67
2021/12/17 15:32:49;;;;;;;10.15;6.93;;;8.10;99.90;;;;;;5057311;28;20025;-66
2021/12/17 15:35:19;;;;;;;11.10;6.25;;;8.10;99.90;;;;;;5038197;28;20028;-66
2021/12/17 15:37:46;;;;;;;8.25;5.57;;;8.10;99.90;;;;;;5055135;28;20036;-65
2021/12/17 15:40:13;;;;;;;10.25;6.10;;;8.10;99.90;;;;;;5054914;28;20057;-68
2021/12/17 15:42:40;;;;;;;7.95;5.28;;;8.10;99.90;;;;;;5054767;28;20397;-68
2021/12/17 15:45:07;;;;;;;9.85;5.57;;;8.10;99.90;;;;;;5036017;28;20027;-69
2021/12/17 15:47:33;;;;;;;10.82;5.80;;;8.10;99.90;;;;;;5035806;28;20045;-69
2021/12/17 15:49:59;;;;;;;7.28;4.88;;;8.00;99.90;;;;;;5035916;28;20028;-69
2021/12/17 15:52:25;;;;;;;6.57;4.57;;;8.00;99.90;;;;;;5053901;28;20087;-69
2021/12/17 15:54:51;;;;;;;7.83;4.87;;;8.00;99.90;;;;;;5053999;28;20035;-68
2021/12/17 15:57:17;;;;;;;7.53;5.10;;;8.00;99.90;;;;;;5053857;28;20060;-68
2021/12/17 15:59:45;;;;;;;6.50;4.50;;;8.00;99.90;;;;;;5053775;28;20040;-68
2021/12/17 16:02:11;;;;;;;7.53;5.10;;;8.00;99.90;;;;;;5053828;28;20044;-68
2021/12/17 16:04:41;;;;;;;6.65;4.78;;;7.90;99.90;;;;;;5053596;28;20024;-69
2021/12/17 16:07:06;;;;;;;7.28;4.63;;;8.00;99.90;;;;;;5053614;28;20061;-68
2021/12/17 16:16:51;;;;;;;8.05;5.40;;;8.00;99.90;;;;;;5053795;28;20339;-71
2021/12/17 16:23:07;;;;;;;9.52;6.43;;;8.00;99.90;;;;;;5055405;28;20388;-68
2021/12/17 16:25:32;;;;;;;8.93;5.87;;;8.00;99.90;;;;;;5054060;28;20100;-67
2021/12/17 16:27:58;;;;;;;9.87;6.43;;;7.90;99.90;;;;;;5053390;28;20025;-69
2021/12/17 16:30:24;;;;;;;11.63;7.27;;;7.90;99.90;;;;;;5053181;28;20028;-68
2021/12/17 16:32:50;;;;;;;8.90;6.30;;;7.90;99.90;;;;;;5053367;28;20033;-69
2021/12/17 16:35:16;;;;;;;9.40;5.88;;;7.90;99.90;;;;;;5052947;28;20112;-70
2021/12/17 16:37:42;;;;;;;9.77;6.75;;;7.80;99.90;;;;;;5035073;28;20067;-68